Time;durP1;ratioP1;P1;durP2;ratioP2;P2;SDS_P1;SDS_P2;PMS_P1;PMS_P2;Temp;Humidity;BMP_temperature;BMP_pressure;BME280_temperature;BME280_humidity;BME280_pressure;Samples;Min_cycle;Max_cycle;Signal;HPM_P1;HPM_P2
2021/10/05 00:01:42;;;;;;;6.60;1.60;;;;;;;;;;5033379;28;20543;-58
2021/10/05 00:04:08;;;;;;;7.05;1.73;;;;;;;;;;5034739;28;20094;-58
2021/10/05 00:06:34;;;;;;;7.82;1.60;;;;;;;;;;5035146;28;20037;-58
2021/10/05 00:09:01;;;;;;;7.72;1.60;;;;;;;;;;5036464;28;20033;-59
2021/10/05 00:11:27;;;;;;;5.53;1.35;;;;;;;;;;5033726;28;20041;-58
2021/10/05 00:13:53;;;;;;;7.15;1.60;;;;;;;;;;5035073;28;20131;-57
2021/10/05 00:16:19;;;;;;;10.93;1.88;;;;;;;;;;5034398;28;20592;-57
2021/10/05 00:18:47;;;;;;;15.68;1.92;;;;;;;;;;5038234;28;20048;-57
2021/10/05 00:21:13;;;;;;;9.57;1.90;;;;;;;;;;5037155;28;20072;-58
2021/10/05 00:23:39;;;;;;;10.73;1.80;;;;;;;;;;5036240;28;20070;-58
2021/10/05 00:26:05;;;;;;;20.63;1.92;;;;;;;;;;5035698;28;20122;-56
2021/10/05 00:28:31;;;;;;;6.95;1.40;;;;;;;;;;5042930;28;20048;-58
2021/10/05 00:30:57;;;;;;;9.35;1.40;;;;;;;;;;5035457;28;20083;-59
2021/10/05 00:33:23;;;;;;;13.88;1.52;;;;;;;;;;5032730;28;20131;-56
2021/10/05 00:35:49;;;;;;;5.97;1.63;;;;;;;;;;5034194;28;20524;-56
2021/10/05 00:38:15;;;;;;;6.63;1.60;;;;;;;;;;5044366;28;20053;-57
2021/10/05 00:40:41;;;;;;;13.75;1.75;;;;;;;;;;5035861;28;20041;-57
2021/10/05 00:43:08;;;;;;;9.13;1.42;;;;;;;;;;5034513;28;20435;-58
2021/10/05 00:45:34;;;;;;;9.38;1.80;;;;;;;;;;5035741;28;20041;-58
2021/10/05 00:48:00;;;;;;;11.07;1.20;;;;;;;;;;5034761;28;20083;-59
2021/10/05 00:50:26;;;;;;;16.42;2.40;;;;;;;;;;5036368;28;20099;-59
2021/10/05 00:52:52;;;;;;;10.60;1.60;;;;;;;;;;5034145;28;20574;-59
2021/10/05 00:55:18;;;;;;;11.18;1.48;;;;;;;;;;5035468;28;20087;-57
2021/10/05 00:57:44;;;;;;;11.55;2.80;;;;;;;;;;5042829;28;20044;-59
2021/10/05 01:00:10;;;;;;;5.68;1.38;;;;;;;;;;5033844;28;20049;-55
2021/10/05 01:02:37;;;;;;;16.15;2.30;;;;;;;;;;5035806;28;20575;-56
2021/10/05 01:05:04;;;;;;;11.73;1.60;;;;;;;;;;5034952;28;20409;-57
2021/10/05 01:07:29;;;;;;;9.52;1.77;;;;;;;;;;5038105;28;20436;-57
2021/10/05 01:09:56;;;;;;;8.77;1.42;;;;;;;;;;5035796;28;20037;-55
2021/10/05 01:12:22;;;;;;;13.02;1.77;;;;;;;;;;5034918;28;20033;-57
2021/10/05 01:14:47;;;;;;;12.60;1.88;;;;;;;;;;5036326;28;20052;-57
2021/10/05 01:17:14;;;;;;;11.07;2.17;;;;;;;;;;5033429;28;20515;-57
2021/10/05 01:19:40;;;;;;;13.95;1.83;;;;;;;;;;5048865;28;20112;-56
2021/10/05 01:22:06;;;;;;;12.57;1.70;;;;;;;;;;5035407;28;20033;-53
2021/10/05 01:24:32;;;;;;;11.18;1.80;;;;;;;;;;5026143;28;20099;-58
2021/10/05 01:26:58;;;;;;;7.13;1.63;;;;;;;;;;5033231;28;20079;-58
2021/10/05 01:29:26;;;;;;;18.90;2.08;;;;;;;;;;5032512;28;20037;-57
2021/10/05 01:31:53;;;;;;;12.02;2.00;;;;;;;;;;5042824;28;20046;-55
2021/10/05 01:34:20;;;;;;;12.13;1.70;;;;;;;;;;5033592;28;20037;-58
2021/10/05 01:36:46;;;;;;;11.27;1.60;;;;;;;;;;5031750;28;20073;-59
2021/10/05 01:39:21;;;;;;;13.20;1.92;;;;;;;;;;5036566;28;20061;-58
2021/10/05 01:41:47;;;;;;;7.93;1.65;;;;;;;;;;5037353;28;20052;-57
2021/10/05 01:44:13;;;;;;;7.78;1.60;;;;;;;;;;5039381;28;22010;-58
2021/10/05 01:46:39;;;;;;;8.30;1.73;;;;;;;;;;5040364;28;20037;-60
2021/10/05 01:49:05;;;;;;;11.80;1.60;;;;;;;;;;5040288;28;20060;-57
2021/10/05 01:51:31;;;;;;;6.10;1.33;;;;;;;;;;5037182;28;20066;-58
2021/10/05 01:53:56;;;;;;;15.93;1.75;;;;;;;;;;5037853;28;20042;-56
2021/10/05 01:56:22;;;;;;;10.10;1.65;;;;;;;;;;5037820;28;20099;-58
2021/10/05 01:58:48;;;;;;;8.70;1.60;;;;;;;;;;5036614;28;20038;-56
2021/10/05 02:01:14;;;;;;;9.30;1.67;;;;;;;;;;5041075;28;20062;-58
2021/10/05 02:03:40;;;;;;;12.38;1.63;;;;;;;;;;5039469;28;20037;-56
2021/10/05 02:06:06;;;;;;;8.50;1.30;;;;;;;;;;5042500;28;20032;-58
2021/10/05 02:08:32;;;;;;;7.93;1.55;;;;;;;;;;5039301;28;20064;-58
2021/10/05 02:10:58;;;;;;;6.30;1.30;;;;;;;;;;5039837;28;20056;-59
2021/10/05 02:13:24;;;;;;;9.15;1.60;;;;;;;;;;5031478;28;20098;-59
2021/10/05 02:16:10;;;;;;;7.82;1.50;;;;;;;;;;5019059;28;20068;-60
2021/10/05 02:18:36;;;;;;;9.93;1.45;;;;;;;;;;5019647;28;20034;-58
2021/10/05 02:21:02;;;;;;;15.82;1.83;;;;;;;;;;5020069;28;20636;-57
2021/10/05 02:26:17;;;;;;;8.32;1.35;;;;;;;;;;5008262;28;20490;-56
2021/10/05 02:28:42;;;;;;;7.25;1.45;;;;;;;;;;5017544;28;20096;-54
2021/10/05 02:31:08;;;;;;;13.70;1.80;;;;;;;;;;5016543;28;20037;-59
2021/10/05 02:33:34;;;;;;;6.60;1.65;;;;;;;;;;5016606;28;20037;-56
2021/10/05 02:36:00;;;;;;;10.57;1.40;;;;;;;;;;5015647;28;20033;-58
2021/10/05 02:38:26;;;;;;;11.52;1.65;;;;;;;;;;5015817;28;20042;-58
2021/10/05 02:40:52;;;;;;;8.25;1.45;;;;;;;;;;5027617;28;20072;-56
2021/10/05 02:43:18;;;;;;;13.02;1.90;;;;;;;;;;5019165;28;20114;-56
2021/10/05 02:45:44;;;;;;;12.70;2.00;;;;;;;;;;5009170;28;20033;-59
2021/10/05 02:48:10;;;;;;;11.88;1.90;;;;;;;;;;5011961;28;20139;-58
2021/10/05 02:50:37;;;;;;;8.93;1.63;;;;;;;;;;5011113;28;20029;-56
2021/10/05 02:53:03;;;;;;;13.75;1.63;;;;;;;;;;5003797;28;20041;-58
2021/10/05 02:55:29;;;;;;;5.93;1.55;;;;;;;;;;5013847;28;20034;-62
2021/10/05 02:57:54;;;;;;;6.63;1.85;;;;;;;;;;5011238;28;20084;-59
2021/10/05 03:00:20;;;;;;;11.57;2.00;;;;;;;;;;5011438;28;20041;-57
2021/10/05 03:02:46;;;;;;;8.18;1.50;;;;;;;;;;5011016;28;20426;-59
2021/10/05 03:05:12;;;;;;;18.95;1.98;;;;;;;;;;5012439;28;20099;-57
2021/10/05 03:07:38;;;;;;;9.88;1.52;;;;;;;;;;5010915;28;20565;-55
2021/10/05 03:10:04;;;;;;;6.60;1.60;;;;;;;;;;5025496;28;20046;-57
2021/10/05 03:12:30;;;;;;;13.13;1.73;;;;;;;;;;5029742;28;20041;-56
2021/10/05 03:14:56;;;;;;;7.70;1.95;;;;;;;;;;5042034;28;20041;-56
2021/10/05 03:17:22;;;;;;;6.63;1.45;;;;;;;;;;5031551;28;20370;-56
2021/10/05 03:19:53;;;;;;;8.93;1.60;;;;;;;;;;5037657;28;20041;-55
2021/10/05 03:22:19;;;;;;;13.15;2.20;;;;;;;;;;5030510;28;20858;-54
2021/10/05 03:24:44;;;;;;;12.02;1.80;;;;;;;;;;5032087;28;20097;-56
2021/10/05 03:27:10;;;;;;;10.07;2.28;;;;;;;;;;5032185;28;20037;-57
2021/10/05 03:29:37;;;;;;;9.30;1.70;;;;;;;;;;5030632;28;20041;-57
2021/10/05 03:32:03;;;;;;;7.05;1.80;;;;;;;;;;5031022;28;20037;-56
2021/10/05 03:34:29;;;;;;;8.38;1.70;;;;;;;;;;5029505;28;20140;-56
2021/10/05 03:36:55;;;;;;;5.20;1.25;;;;;;;;;;5030233;28;20048;-57
2021/10/05 03:39:20;;;;;;;9.52;1.60;;;;;;;;;;5030725;28;20053;-58
2021/10/05 03:41:46;;;;;;;10.27;1.95;;;;;;;;;;5034322;28;20060;-57
2021/10/05 03:44:12;;;;;;;10.82;1.90;;;;;;;;;;5034286;28;20437;-59
2021/10/05 03:46:38;;;;;;;7.20;1.42;;;;;;;;;;5034591;28;20335;-58
2021/10/05 03:49:04;;;;;;;9.50;1.92;;;;;;;;;;5037207;28;20139;-58
2021/10/05 03:51:30;;;;;;;11.60;2.00;;;;;;;;;;5033443;28;20033;-56
2021/10/05 03:53:57;;;;;;;5.65;1.80;;;;;;;;;;5042856;28;20080;-56
2021/10/05 03:56:23;;;;;;;6.93;1.52;;;;;;;;;;5032278;28;20049;-58
2021/10/05 03:58:49;;;;;;;9.95;1.77;;;;;;;;;;5034010;28;20091;-55
2021/10/05 04:01:15;;;;;;;12.75;1.63;;;;;;;;;;5033164;28;20132;-58
2021/10/05 04:03:41;;;;;;;10.90;1.42;;;;;;;;;;5035316;28;20048;-57
2021/10/05 04:06:08;;;;;;;6.88;1.30;;;;;;;;;;5030974;28;20079;-57
2021/10/05 04:08:34;;;;;;;18.67;1.83;;;;;;;;;;5042995;28;20072;-55
2021/10/05 04:11:00;;;;;;;5.90;1.50;;;;;;;;;;5034477;28;20064;-57
2021/10/05 04:13:25;;;;;;;7.88;1.70;;;;;;;;;;5033252;28;20132;-58
2021/10/05 04:15:51;;;;;;;7.45;1.50;;;;;;;;;;5033631;28;20049;-56
2021/10/05 04:18:17;;;;;;;11.77;1.52;;;;;;;;;;5033073;28;20582;-56
2021/10/05 04:20:43;;;;;;;9.50;2.03;;;;;;;;;;5033167;28;20102;-58
2021/10/05 04:23:09;;;;;;;10.25;1.45;;;;;;;;;;5035552;28;20041;-56
2021/10/05 04:25:34;;;;;;;7.25;1.45;;;;;;;;;;5033795;28;20030;-56
2021/10/05 04:28:00;;;;;;;7.63;1.85;;;;;;;;;;5034300;28;21881;-58
2021/10/05 04:30:26;;;;;;;10.50;1.38;;;;;;;;;;5042702;28;20037;-58
2021/10/05 04:32:52;;;;;;;7.55;1.58;;;;;;;;;;5035422;28;20041;-57
2021/10/05 04:35:18;;;;;;;5.50;1.27;;;;;;;;;;5033131;28;20039;-58
2021/10/05 04:37:44;;;;;;;4.38;1.23;;;;;;;;;;5033350;28;20049;-58
2021/10/05 04:40:10;;;;;;;7.20;1.45;;;;;;;;;;5046668;28;20040;-58
2021/10/05 04:42:39;;;;;;;9.95;1.80;;;;;;;;;;5039985;28;20033;-58
2021/10/05 04:45:05;;;;;;;10.32;1.50;;;;;;;;;;5035332;28;20045;-58
2021/10/05 04:47:30;;;;;;;10.10;1.90;;;;;;;;;;5034268;28;20045;-56
2021/10/05 04:49:56;;;;;;;5.07;1.40;;;;;;;;;;5035662;28;20056;-56
2021/10/05 04:52:22;;;;;;;8.95;1.85;;;;;;;;;;5033956;28;20100;-55
2021/10/05 04:54:48;;;;;;;11.30;1.80;;;;;;;;;;5037376;28;20044;-56
2021/10/05 04:57:14;;;;;;;7.70;1.52;;;;;;;;;;5034865;28;20041;-57
2021/10/05 04:59:40;;;;;;;11.65;1.80;;;;;;;;;;5035217;28;20044;-56
2021/10/05 05:02:06;;;;;;;11.75;1.63;;;;;;;;;;5036573;28;20048;-57
2021/10/05 05:04:31;;;;;;;4.40;1.45;;;;;;;;;;5035435;28;20501;-57
2021/10/05 05:06:57;;;;;;;11.57;1.92;;;;;;;;;;5034510;28;20053;-56
2021/10/05 05:09:23;;;;;;;7.05;1.85;;;;;;;;;;5034881;28;20064;-56
2021/10/05 05:11:49;;;;;;;8.63;2.03;;;;;;;;;;5034546;28;20099;-58
2021/10/05 05:14:17;;;;;;;14.15;2.28;;;;;;;;;;5045477;28;20045;-56
2021/10/05 05:16:43;;;;;;;11.40;1.80;;;;;;;;;;5031887;28;20059;-59
2021/10/05 05:19:09;;;;;;;8.77;1.92;;;;;;;;;;5032517;28;20065;-56
2021/10/05 05:21:35;;;;;;;7.25;1.60;;;;;;;;;;5034612;28;20081;-57
2021/10/05 05:24:01;;;;;;;6.93;1.70;;;;;;;;;;5034830;28;20049;-58
2021/10/05 05:26:27;;;;;;;5.93;1.60;;;;;;;;;;5033325;28;20044;-56
2021/10/05 05:28:54;;;;;;;9.35;1.80;;;;;;;;;;5031535;28;20105;-54
2021/10/05 05:31:19;;;;;;;6.30;1.67;;;;;;;;;;5033191;28;20037;-58
2021/10/05 05:33:46;;;;;;;10.23;1.85;;;;;;;;;;5033940;28;20037;-55
2021/10/05 05:36:11;;;;;;;11.57;2.08;;;;;;;;;;5032760;28;20044;-57
2021/10/05 05:38:38;;;;;;;10.48;1.88;;;;;;;;;;5034569;28;20048;-58
2021/10/05 05:41:03;;;;;;;13.65;1.67;;;;;;;;;;5033891;28;20393;-55
2021/10/05 05:43:29;;;;;;;6.60;1.33;;;;;;;;;;5034365;28;20037;-59
2021/10/05 05:45:55;;;;;;;4.35;1.50;;;;;;;;;;5033565;28;20040;-57
2021/10/05 05:48:21;;;;;;;9.23;1.83;;;;;;;;;;5044744;28;20049;-57
2021/10/05 05:50:47;;;;;;;7.90;1.55;;;;;;;;;;5049771;28;20456;-57
2021/10/05 05:53:13;;;;;;;11.55;2.00;;;;;;;;;;5031681;28;20517;-56
2021/10/05 05:55:39;;;;;;;7.32;1.42;;;;;;;;;;5044607;28;20608;-57
2021/10/05 05:58:08;;;;;;;3.97;1.30;;;;;;;;;;5034787;28;20048;-57
2021/10/05 06:00:34;;;;;;;8.20;1.77;;;;;;;;;;5038705;28;20048;-58
2021/10/05 06:03:00;;;;;;;15.25;2.00;;;;;;;;;;5058917;28;20033;-58
2021/10/05 06:05:26;;;;;;;7.90;1.60;;;;;;;;;;5055837;28;20042;-56
2021/10/05 06:07:52;;;;;;;5.90;1.50;;;;;;;;;;5057083;28;20084;-60
2021/10/05 06:10:20;;;;;;;8.38;1.77;;;;;;;;;;5047882;28;20029;-58
2021/10/05 06:13:03;;;;;;;3.90;1.33;;;;;;;;;;5057698;28;20095;-57
2021/10/05 06:15:29;;;;;;;10.02;1.70;;;;;;;;;;5054002;28;20032;-59
2021/10/05 06:17:55;;;;;;;7.60;1.58;;;;;;;;;;5056045;28;20051;-57
2021/10/05 06:20:22;;;;;;;5.60;1.10;;;;;;;;;;5058420;28;20028;-58
2021/10/05 06:22:49;;;;;;;7.07;1.20;;;;;;;;;;5056288;28;20056;-58
2021/10/05 06:25:16;;;;;;;5.65;1.25;;;;;;;;;;5053249;28;20058;-56
2021/10/05 06:27:43;;;;;;;6.28;1.50;;;;;;;;;;5049973;28;20541;-56
2021/10/05 06:30:09;;;;;;;7.85;1.73;;;;;;;;;;5050761;28;20036;-59
2021/10/05 06:32:35;;;;;;;10.15;1.70;;;;;;;;;;5052683;28;20045;-56
2021/10/05 06:35:01;;;;;;;7.88;1.48;;;;;;;;;;5053607;28;20986;-58
2021/10/05 06:37:27;;;;;;;12.10;1.40;;;;;;;;;;5049053;28;20094;-55
2021/10/05 06:39:52;;;;;;;6.55;1.40;;;;;;;;;;5051128;28;20667;-57
2021/10/05 06:42:18;;;;;;;7.72;1.38;;;;;;;;;;5049949;28;20602;-57
2021/10/05 06:44:44;;;;;;;7.75;1.52;;;;;;;;;;5033596;28;20797;-53
2021/10/05 06:47:10;;;;;;;14.07;1.65;;;;;;;;;;5033887;28;20049;-57
2021/10/05 06:49:36;;;;;;;5.15;0.98;;;;;;;;;;5032058;28;20046;-56
2021/10/05 06:52:02;;;;;;;3.70;1.35;;;;;;;;;;5034247;28;20049;-57
2021/10/05 06:54:28;;;;;;;13.07;1.88;;;;;;;;;;5034452;28;20033;-57
2021/10/05 06:56:54;;;;;;;7.93;1.20;;;;;;;;;;5032612;28;20395;-56
2021/10/05 06:59:20;;;;;;;5.65;1.33;;;;;;;;;;5033706;28;20044;-57
2021/10/05 07:01:46;;;;;;;9.43;1.60;;;;;;;;;;5032942;28;20679;-57
2021/10/05 07:04:12;;;;;;;4.93;1.50;;;;;;;;;;5032205;28;20045;-57
2021/10/05 07:06:38;;;;;;;4.90;1.30;;;;;;;;;;5031806;28;20079;-56
2021/10/05 07:09:04;;;;;;;8.48;1.35;;;;;;;;;;5032553;28;20421;-58
2021/10/05 07:11:30;;;;;;;11.38;1.50;;;;;;;;;;5032355;28;20770;-57
2021/10/05 07:13:56;;;;;;;4.47;1.33;;;;;;;;;;5031599;28;20060;-58
2021/10/05 07:16:22;;;;;;;10.40;1.65;;;;;;;;;;5032834;28;20061;-57
2021/10/05 07:18:48;;;;;;;4.70;1.50;;;;;;;;;;5038466;28;20727;-55
2021/10/05 07:21:14;;;;;;;7.30;1.35;;;;;;;;;;5037998;28;20432;-58
2021/10/05 07:23:40;;;;;;;9.90;1.30;;;;;;;;;;5036008;28;20097;-57
2021/10/05 07:26:06;;;;;;;17.17;2.20;;;;;;;;;;5038434;28;20065;-57
2021/10/05 07:28:31;;;;;;;5.90;1.35;;;;;;;;;;5040219;28;20041;-58
2021/10/05 07:30:57;;;;;;;6.80;1.50;;;;;;;;;;5039355;28;20052;-58
2021/10/05 07:33:26;;;;;;;6.63;1.33;;;;;;;;;;5039737;28;20072;-57
2021/10/05 07:35:51;;;;;;;4.57;1.33;;;;;;;;;;5036241;28;20063;-58
2021/10/05 07:38:17;;;;;;;13.70;1.63;;;;;;;;;;5036565;28;20052;-58
2021/10/05 07:40:43;;;;;;;11.25;1.70;;;;;;;;;;5035786;28;20040;-58
2021/10/05 07:43:09;;;;;;;9.27;1.58;;;;;;;;;;5037102;28;20492;-52
2021/10/05 07:45:36;;;;;;;6.47;1.42;;;;;;;;;;5035342;28;20044;-57
2021/10/05 07:48:04;;;;;;;11.68;1.65;;;;;;;;;;5037516;28;20073;-58
2021/10/05 07:50:31;;;;;;;15.07;1.58;;;;;;;;;;5036355;28;20066;-58
2021/10/05 07:52:57;;;;;;;7.50;1.63;;;;;;;;;;5035466;28;20043;-56
2021/10/05 07:55:23;;;;;;;13.35;1.40;;;;;;;;;;5028747;28;20034;-56
2021/10/05 07:57:49;;;;;;;5.15;1.20;;;;;;;;;;5036043;28;20144;-60
2021/10/05 08:00:15;;;;;;;7.57;1.33;;;;;;;;;;5036716;28;20758;-56
2021/10/05 08:02:41;;;;;;;11.63;1.50;;;;;;;;;;5036383;28;20065;-56
2021/10/05 08:05:07;;;;;;;16.67;2.03;;;;;;;;;;5036030;28;20043;-56
2021/10/05 08:07:33;;;;;;;9.82;1.45;;;;;;;;;;5036211;28;20061;-56
2021/10/05 08:09:58;;;;;;;7.45;1.63;;;;;;;;;;5035924;28;20096;-57
2021/10/05 08:12:25;;;;;;;8.73;1.38;;;;;;;;;;5036755;28;20037;-56
2021/10/05 08:14:51;;;;;;;9.02;1.20;;;;;;;;;;5035252;28;20092;-58
2021/10/05 08:17:17;;;;;;;5.75;1.30;;;;;;;;;;5035923;28;20600;-58
2021/10/05 08:19:44;;;;;;;10.68;1.48;;;;;;;;;;5034963;28;20435;-56
2021/10/05 08:22:10;;;;;;;8.75;1.38;;;;;;;;;;5035990;28;20047;-56
2021/10/05 08:24:36;;;;;;;11.23;1.40;;;;;;;;;;5033809;28;20052;-57
2021/10/05 08:27:04;;;;;;;8.35;2.00;;;;;;;;;;5035453;28;20804;-57
2021/10/05 08:29:30;;;;;;;6.35;1.60;;;;;;;;;;5035102;28;20052;-56
2021/10/05 08:31:57;;;;;;;5.57;1.75;;;;;;;;;;5037931;28;20032;-57
2021/10/05 08:34:23;;;;;;;9.48;1.83;;;;;;;;;;5035656;28;20056;-58
2021/10/05 08:36:49;;;;;;;7.45;1.48;;;;;;;;;;5038278;28;20048;-59
2021/10/05 08:39:16;;;;;;;7.82;1.20;;;;;;;;;;5036993;28;20560;-55
2021/10/05 08:41:45;;;;;;;4.75;1.58;;;;;;;;;;5036051;28;20041;-58
2021/10/05 08:44:11;;;;;;;8.15;1.45;;;;;;;;;;5038331;28;20044;-57
2021/10/05 08:46:37;;;;;;;4.00;1.13;;;;;;;;;;5033417;28;20061;-58
2021/10/05 08:49:04;;;;;;;11.38;1.52;;;;;;;;;;5034543;28;20537;-58
2021/10/05 08:51:29;;;;;;;8.07;1.80;;;;;;;;;;5035851;28;20041;-57
2021/10/05 08:53:55;;;;;;;11.27;1.52;;;;;;;;;;5035575;28;20042;-57
2021/10/05 08:56:21;;;;;;;6.07;1.58;;;;;;;;;;5045130;28;20052;-55
2021/10/05 08:58:47;;;;;;;12.27;1.40;;;;;;;;;;5036581;28;20123;-57
2021/10/05 09:01:14;;;;;;;7.13;1.42;;;;;;;;;;5035900;28;20048;-58
2021/10/05 09:03:49;;;;;;;5.93;1.20;;;;;;;;;;5054005;28;20068;-58
2021/10/05 09:06:16;;;;;;;5.70;1.48;;;;;;;;;;5037299;28;20037;-56
2021/10/05 09:08:43;;;;;;;4.93;1.20;;;;;;;;;;5037587;28;20051;-54
2021/10/05 09:11:09;;;;;;;6.80;1.25;;;;;;;;;;5036431;28;20469;-57
2021/10/05 09:13:39;;;;;;;4.88;1.67;;;;;;;;;;5032021;28;21618;-56
2021/10/05 09:16:22;;;;;;;4.93;1.70;;;;;;;;;;5033410;28;20128;-57
2021/10/05 09:19:01;;;;;;;6.32;1.60;;;;;;;;;;5053754;28;20041;-55
2021/10/05 09:21:29;;;;;;;6.05;1.35;;;;;;;;;;5036889;28;20133;-56
2021/10/05 09:23:59;;;;;;;5.53;1.15;;;;;;;;;;5038701;28;20120;-58
2021/10/05 09:26:32;;;;;;;6.68;1.42;;;;;;;;;;5036430;28;20042;-58
2021/10/05 09:29:11;;;;;;;7.57;1.70;;;;;;;;;;5031152;28;20053;-57
2021/10/05 09:31:52;;;;;;;6.22;1.65;;;;;;;;;;5037553;28;20037;-56
2021/10/05 09:34:18;;;;;;;3.50;1.33;;;;;;;;;;5040945;28;20145;-56
2021/10/05 09:36:44;;;;;;;3.40;1.00;;;;;;;;;;5037565;28;20034;-57
2021/10/05 09:39:10;;;;;;;5.70;1.20;;;;;;;;;;5036416;28;20476;-56
2021/10/05 09:41:36;;;;;;;7.72;1.50;;;;;;;;;;5036204;28;20714;-56
2021/10/05 09:44:05;;;;;;;5.43;1.30;;;;;;;;;;5037208;28;20073;-56
2021/10/05 09:46:31;;;;;;;6.80;1.00;;;;;;;;;;5033817;28;20048;-56
2021/10/05 09:49:01;;;;;;;9.68;1.60;;;;;;;;;;5036486;28;20738;-58
2021/10/05 09:51:28;;;;;;;6.40;1.50;;;;;;;;;;5048447;28;20078;-57
2021/10/05 09:53:55;;;;;;;7.05;1.65;;;;;;;;;;5036515;28;20045;-56
2021/10/05 09:56:21;;;;;;;5.15;1.10;;;;;;;;;;5050806;28;20078;-56
2021/10/05 09:58:48;;;;;;;6.75;1.40;;;;;;;;;;5035661;28;20634;-53
2021/10/05 10:01:14;;;;;;;7.00;1.58;;;;;;;;;;5036775;28;20049;-55
2021/10/05 10:03:41;;;;;;;6.07;1.38;;;;;;;;;;5032640;28;20045;-56
2021/10/05 10:06:07;;;;;;;5.78;1.45;;;;;;;;;;5034775;28;20093;-56
2021/10/05 10:08:34;;;;;;;7.80;1.25;;;;;;;;;;5034816;28;20821;-57
2021/10/05 10:11:00;;;;;;;5.88;1.13;;;;;;;;;;5036675;28;20060;-54
2021/10/05 10:13:26;;;;;;;12.18;1.70;;;;;;;;;;5037132;28;20116;-52
2021/10/05 10:15:55;;;;;;;13.00;1.67;;;;;;;;;;5036505;28;20057;-52
2021/10/05 10:18:24;;;;;;;4.70;1.58;;;;;;;;;;5038542;28;20509;-56
2021/10/05 10:21:10;;;;;;;5.68;1.33;;;;;;;;;;5038455;28;20120;-57
2021/10/05 10:23:37;;;;;;;5.95;1.30;;;;;;;;;;5035548;28;20049;-57
2021/10/05 10:26:04;;;;;;;5.35;1.27;;;;;;;;;;5032522;28;20040;-50
2021/10/05 10:28:32;;;;;;;9.10;1.40;;;;;;;;;;5032690;28;20055;-57
2021/10/05 10:30:59;;;;;;;9.68;1.65;;;;;;;;;;5034331;28;20043;-56
2021/10/05 10:33:28;;;;;;;6.30;1.65;;;;;;;;;;5032513;28;20029;-59
2021/10/05 10:35:55;;;;;;;4.45;1.50;;;;;;;;;;5034950;28;20520;-52
2021/10/05 10:38:22;;;;;;;9.02;1.88;;;;;;;;;;5034965;28;20462;-55
2021/10/05 10:40:48;;;;;;;4.13;1.40;;;;;;;;;;5035127;28;20057;-57
2021/10/05 10:43:15;;;;;;;8.98;1.60;;;;;;;;;;5034269;28;20132;-57
2021/10/05 10:45:44;;;;;;;5.65;1.40;;;;;;;;;;5033393;28;20133;-57
2021/10/05 10:48:10;;;;;;;4.75;1.45;;;;;;;;;;5035172;28;20808;-56
2021/10/05 10:50:37;;;;;;;6.78;1.25;;;;;;;;;;5037007;28;20033;-55
2021/10/05 10:53:07;;;;;;;5.57;1.58;;;;;;;;;;5038538;28;20044;-57
2021/10/05 10:55:35;;;;;;;8.75;1.67;;;;;;;;;;5039689;28;20045;-53
2021/10/05 10:58:01;;;;;;;6.70;1.27;;;;;;;;;;5040475;28;20033;-57
2021/10/05 11:00:32;;;;;;;8.05;1.50;;;;;;;;;;5039004;28;20124;-56
2021/10/05 11:02:59;;;;;;;11.93;2.03;;;;;;;;;;5037087;28;20112;-56
2021/10/05 11:05:26;;;;;;;5.28;1.15;;;;;;;;;;5047966;28;20041;-58
2021/10/05 11:07:56;;;;;;;3.85;1.30;;;;;;;;;;5037261;28;20067;-58
2021/10/05 11:10:32;;;;;;;7.30;1.58;;;;;;;;;;5050778;28;20041;-56
2021/10/05 11:12:59;;;;;;;5.00;1.48;;;;;;;;;;5035900;28;20091;-55
2021/10/05 11:15:32;;;;;;;5.78;1.50;;;;;;;;;;5047568;28;20033;-53
2021/10/05 11:18:05;;;;;;;9.20;1.40;;;;;;;;;;5037815;28;20055;-54
2021/10/05 11:20:31;;;;;;;9.63;1.80;;;;;;;;;;5039468;28;20039;-57
2021/10/05 11:22:59;;;;;;;3.95;1.60;;;;;;;;;;5036272;28;20033;-55
2021/10/05 11:25:25;;;;;;;8.40;1.67;;;;;;;;;;5035541;28;20593;-57
2021/10/05 11:27:51;;;;;;;6.28;1.55;;;;;;;;;;5037953;28;20648;-56
2021/10/05 11:30:17;;;;;;;7.72;1.50;;;;;;;;;;5039924;28;20037;-56
2021/10/05 11:32:47;;;;;;;5.25;1.13;;;;;;;;;;5047504;28;20068;-57
2021/10/05 11:35:13;;;;;;;9.30;1.55;;;;;;;;;;5062199;28;20083;-57
2021/10/05 11:37:39;;;;;;;4.22;1.40;;;;;;;;;;5062520;28;20029;-58
2021/10/05 11:40:05;;;;;;;11.90;1.60;;;;;;;;;;5060542;28;20037;-57
2021/10/05 11:42:31;;;;;;;4.53;1.38;;;;;;;;;;5059801;28;20065;-56
2021/10/05 11:45:01;;;;;;;7.78;2.03;;;;;;;;;;5053905;28;20063;-57
2021/10/05 11:47:28;;;;;;;14.25;1.92;;;;;;;;;;5038773;28;20049;-57
2021/10/05 11:49:58;;;;;;;4.65;1.48;;;;;;;;;;5042804;28;20038;-59
2021/10/05 11:52:25;;;;;;;10.90;1.58;;;;;;;;;;5042205;28;20109;-57
2021/10/05 11:54:52;;;;;;;9.90;1.45;;;;;;;;;;5041600;28;20106;-55
2021/10/05 11:57:22;;;;;;;4.72;1.48;;;;;;;;;;5038362;28;20045;-56
2021/10/05 11:59:48;;;;;;;11.23;1.60;;;;;;;;;;5038820;28;20044;-58
2021/10/05 12:02:21;;;;;;;11.25;1.63;;;;;;;;;;5047490;28;20071;-55
2021/10/05 12:04:48;;;;;;;6.28;2.00;;;;;;;;;;5036906;28;20068;-53
2021/10/05 12:07:17;;;;;;;4.15;1.38;;;;;;;;;;5036214;28;20080;-58
2021/10/05 12:09:44;;;;;;;8.98;2.90;;;;;;;;;;5035723;28;20033;-57
2021/10/05 12:12:11;;;;;;;7.40;1.73;;;;;;;;;;5039498;28;20654;-57
2021/10/05 12:14:57;;;;;;;4.78;1.38;;;;;;;;;;5040179;28;20053;-54
2021/10/05 12:17:23;;;;;;;6.93;1.90;;;;;;;;;;5037663;28;20044;-55
2021/10/05 12:19:56;;;;;;;14.82;1.85;;;;;;;;;;5036404;28;20498;-55
2021/10/05 12:22:24;;;;;;;7.22;2.13;;;;;;;;;;5041525;28;20042;-57
2021/10/05 12:24:51;;;;;;;6.20;1.70;;;;;;;;;;5039656;28;20360;-54
2021/10/05 12:27:20;;;;;;;10.90;1.70;;;;;;;;;;5040584;28;20053;-57
2021/10/05 12:30:09;;;;;;;17.08;1.92;;;;;;;;;;5036697;28;20056;-58
2021/10/05 12:32:37;;;;;;;6.95;1.88;;;;;;;;;;5028719;28;20037;-55
2021/10/05 12:35:17;;;;;;;14.98;1.92;;;;;;;;;;5037548;28;20067;-57
2021/10/05 12:37:44;;;;;;;13.40;1.65;;;;;;;;;;5036422;28;20533;-58
2021/10/05 12:40:09;;;;;;;8.10;1.77;;;;;;;;;;5048540;28;20049;-57
2021/10/05 12:42:36;;;;;;;7.35;2.00;;;;;;;;;;5034093;28;20029;-58
2021/10/05 12:45:08;;;;;;;4.80;1.75;;;;;;;;;;5032395;28;20049;-57
2021/10/05 12:47:34;;;;;;;14.43;1.65;;;;;;;;;;5036759;28;20049;-56
2021/10/05 12:50:00;;;;;;;11.15;1.85;;;;;;;;;;5036355;28;20032;-57
2021/10/05 12:52:26;;;;;;;12.43;2.05;;;;;;;;;;5037541;28;20044;-56
2021/10/05 12:54:51;;;;;;;7.60;1.80;;;;;;;;;;5041608;28;20037;-57
2021/10/05 12:57:17;;;;;;;10.18;1.95;;;;;;;;;;5050160;28;20122;-56
2021/10/05 12:59:53;;;;;;;12.90;2.03;;;;;;;;;;5054454;28;20037;-55
2021/10/05 13:02:19;;;;;;;13.60;2.20;;;;;;;;;;5058052;28;20118;-54
2021/10/05 13:04:44;;;;;;;6.13;1.83;;;;;;;;;;5057146;28;20029;-58
2021/10/05 13:07:10;;;;;;;8.32;1.48;;;;;;;;;;5053412;28;20033;-55
2021/10/05 13:09:36;;;;;;;18.30;2.38;;;;;;;;;;5048997;28;20037;-57
2021/10/05 13:12:02;;;;;;;8.40;1.98;;;;;;;;;;5052826;28;20132;-56
2021/10/05 13:14:28;;;;;;;10.98;1.80;;;;;;;;;;5040963;28;20497;-54
2021/10/05 13:16:54;;;;;;;7.40;1.70;;;;;;;;;;5037449;28;20053;-57
2021/10/05 13:19:20;;;;;;;9.43;2.13;;;;;;;;;;5032956;28;20037;-54
2021/10/05 13:21:46;;;;;;;15.20;2.78;;;;;;;;;;5033486;28;20112;-57
2021/10/05 13:24:12;;;;;;;7.57;1.58;;;;;;;;;;5032751;28;20041;-56
2021/10/05 13:26:39;;;;;;;9.25;2.03;;;;;;;;;;5035310;28;20057;-54
2021/10/05 13:29:05;;;;;;;14.43;2.47;;;;;;;;;;5034722;28;20077;-54
2021/10/05 13:31:31;;;;;;;10.65;2.50;;;;;;;;;;5039214;28;20075;-58
2021/10/05 13:33:57;;;;;;;18.67;2.28;;;;;;;;;;5040263;28;20037;-58
2021/10/05 13:36:23;;;;;;;9.30;2.22;;;;;;;;;;5035756;28;20045;-57
2021/10/05 13:38:49;;;;;;;12.82;2.53;;;;;;;;;;5037923;28;20065;-58
2021/10/05 13:41:15;;;;;;;13.05;2.90;;;;;;;;;;5037427;28;20135;-55
2021/10/05 13:43:41;;;;;;;10.85;2.05;;;;;;;;;;5034926;28;20550;-57
2021/10/05 13:46:07;;;;;;;12.05;2.35;;;;;;;;;;5037124;28;20737;-57
2021/10/05 13:48:33;;;;;;;18.92;2.72;;;;;;;;;;5033616;28;20051;-54
2021/10/05 13:50:59;;;;;;;15.18;2.90;;;;;;;;;;5037113;28;20124;-56
2021/10/05 13:53:25;;;;;;;6.72;2.90;;;;;;;;;;5036002;28;20041;-56
2021/10/05 13:55:50;;;;;;;24.10;3.15;;;;;;;;;;5049076;28;20406;-56
2021/10/05 13:58:16;;;;;;;28.95;4.72;;;;;;;;;;5034014;28;20037;-56
2021/10/05 14:00:43;;;;;;;38.90;5.32;;;;;;;;;;5032034;28;20045;-49
2021/10/05 14:03:11;;;;;;;44.42;4.20;;;;;;;;;;5034139;28;20037;-63
2021/10/05 14:05:37;;;;;;;30.27;4.03;;;;;;;;;;5032575;28;20087;-58
2021/10/05 14:08:03;;;;;;;130.07;12.10;;;;;;;;;;5050126;28;20049;-57
2021/10/05 14:10:29;;;;;;;58.05;6.60;;;;;;;;;;5047790;28;20057;-56
2021/10/05 14:12:54;;;;;;;43.95;5.88;;;;;;;;;;5033636;28;20079;-58
2021/10/05 14:15:20;;;;;;;35.75;5.35;;;;;;;;;;5033645;28;20037;-55
2021/10/05 14:17:46;;;;;;;27.02;3.75;;;;;;;;;;5034648;28;20053;-57
2021/10/05 14:20:12;;;;;;;29.08;4.63;;;;;;;;;;5035443;28;20036;-56
2021/10/05 14:22:38;;;;;;;19.48;3.78;;;;;;;;;;5031853;28;20087;-54
2021/10/05 14:25:06;;;;;;;23.15;3.50;;;;;;;;;;5032351;28;20747;-57
2021/10/05 14:27:32;;;;;;;35.90;3.40;;;;;;;;;;5031401;28;20057;-55
2021/10/05 14:29:59;;;;;;;17.88;3.63;;;;;;;;;;5041392;28;20041;-55
2021/10/05 14:32:25;;;;;;;14.70;3.53;;;;;;;;;;5030801;28;20128;-54
2021/10/05 14:34:51;;;;;;;17.10;3.30;;;;;;;;;;5032680;28;20124;-56
2021/10/05 14:37:16;;;;;;;17.02;3.33;;;;;;;;;;5034770;28;20140;-57
2021/10/05 14:39:42;;;;;;;20.80;3.38;;;;;;;;;;5033048;28;20040;-55